createdAt,value
2019-05-17T00:00:07.480Z,8.41
2019-05-17T00:02:37.370Z,8.42
2019-05-17T00:05:08.156Z,8.46
2019-05-17T00:07:37.153Z,8.44
2019-05-17T00:10:06.862Z,8.44
2019-05-17T00:12:36.837Z,8.41
2019-05-17T00:15:07.107Z,8.49
2019-05-17T00:17:37.602Z,8.46
2019-05-17T00:20:07.825Z,8.39
2019-05-17T00:22:36.697Z,8.35
2019-05-17T00:25:07.502Z,8.38
2019-05-17T00:27:36.849Z,8.42
2019-05-17T00:30:10.011Z,8.34
2019-05-17T00:32:39.375Z,8.34
2019-05-17T00:35:08.155Z,8.39
2019-05-17T00:37:37.387Z,8.26
2019-05-17T00:40:07.586Z,8.28
2019-05-17T00:42:37.248Z,8.24
2019-05-17T00:45:10.813Z,8.23
2019-05-17T00:47:39.245Z,8.21
2019-05-17T00:50:08.300Z,8.17
2019-05-17T00:52:37.112Z,8.12
2019-05-17T00:55:09.017Z,8.22
2019-05-17T00:57:37.500Z,8.31
2019-05-17T01:00:08.540Z,8.30
2019-05-17T01:02:37.119Z,8.18
2019-05-17T01:05:07.543Z,8.29
2019-05-17T01:07:37.767Z,8.29
2019-05-17T01:10:09.672Z,8.24
2019-05-17T01:12:38.250Z,8.28
2019-05-17T01:15:11.279Z,8.34
2019-05-17T01:17:39.740Z,8.33
2019-05-17T01:20:09.113Z,8.34
2019-05-17T01:22:37.603Z,8.40
2019-05-17T01:25:09.909Z,8.33
2019-05-17T01:27:39.570Z,8.28
2019-05-17T01:30:09.628Z,8.30
2019-05-17T01:32:38.046Z,8.25
2019-05-17T01:35:07.430Z,8.26
2019-05-17T01:37:36.935Z,8.41
2019-05-17T01:40:07.514Z,8.29
2019-05-17T01:42:37.406Z,8.16
2019-05-17T01:45:07.570Z,8.21
2019-05-17T01:47:36.827Z,8.37
2019-05-17T01:50:07.927Z,8.17
2019-05-17T01:52:37.111Z,8.18
2019-05-17T01:55:07.533Z,8.23
2019-05-17T01:57:37.112Z,8.21
2019-05-17T02:00:08.666Z,8.21
2019-05-17T02:02:38.733Z,8.14
2019-05-17T02:05:08.773Z,8.07
2019-05-17T02:07:37.395Z,8.10
2019-05-17T02:10:09.240Z,8.12
2019-05-17T02:12:37.631Z,8.04
2019-05-17T02:15:11.791Z,8.00
2019-05-17T02:17:40.221Z,8.03
2019-05-17T02:20:09.670Z,8.06
2019-05-17T02:22:38.068Z,8.02
2019-05-17T02:25:13.316Z,8.06
2019-05-17T02:27:44.703Z,8.10
2019-05-17T02:30:14.505Z,8.12
2019-05-17T02:32:43.729Z,8.06
2019-05-17T02:35:14.447Z,8.05
2019-05-17T02:37:43.644Z,8.08
2019-05-17T02:40:14.432Z,8.06
2019-05-17T02:42:43.570Z,8.09
2019-05-17T02:45:14.042Z,8.13
2019-05-17T02:47:43.747Z,8.11
2019-05-17T02:50:14.093Z,8.07
2019-05-17T02:52:43.736Z,8.07
2019-05-17T02:55:13.421Z,8.11
2019-05-17T02:57:43.232Z,8.10
2019-05-17T03:00:13.417Z,8.08
2019-05-17T03:02:43.432Z,8.22
2019-05-17T03:05:13.772Z,8.15
2019-05-17T03:07:43.772Z,8.18
2019-05-17T03:10:22.851Z,8.16
2019-05-17T03:12:44.494Z,8.17
2019-05-17T03:15:13.318Z,8.17
2019-05-17T03:17:43.430Z,8.17
2019-05-17T03:20:13.303Z,8.22
2019-05-17T03:22:44.113Z,8.16
2019-05-17T03:25:14.202Z,8.21
2019-05-17T03:27:43.239Z,8.17
2019-05-17T03:30:17.486Z,8.28
2019-05-17T03:32:47.908Z,8.22
2019-05-17T03:35:16.837Z,8.17
2019-05-17T03:37:44.086Z,8.25
2019-05-17T03:40:27.591Z,8.23
2019-05-17T03:42:43.307Z,8.24
2019-05-17T03:45:13.768Z,8.26
2019-05-17T03:47:44.365Z,8.31
2019-05-17T03:50:13.611Z,8.26
2019-05-17T03:52:44.416Z,8.34
2019-05-17T03:55:13.315Z,8.30
2019-05-17T03:57:44.294Z,8.28
2019-05-17T04:00:13.601Z,8.35
2019-05-17T04:02:44.488Z,8.39
2019-05-17T04:05:13.048Z,8.40
2019-05-17T04:07:43.384Z,8.42
2019-05-17T04:10:15.036Z,8.34
2019-05-17T04:12:44.206Z,8.44
2019-05-17T04:15:13.963Z,8.43
2019-05-17T04:17:43.968Z,8.47
2019-05-17T04:20:14.355Z,8.35
2019-05-17T04:22:44.136Z,8.41
2019-05-17T04:25:14.125Z,8.45
2019-05-17T04:27:43.968Z,8.49
2019-05-17T04:30:12.923Z,8.41
2019-05-17T04:32:44.326Z,8.52
2019-05-17T04:35:13.127Z,8.53
2019-05-17T04:37:44.666Z,8.46
2019-05-17T04:40:14.276Z,8.43
2019-05-17T04:42:43.884Z,8.44
2019-05-17T04:45:12.941Z,8.47
2019-05-17T04:47:44.157Z,8.50
2019-05-17T04:50:13.889Z,8.45
2019-05-17T04:52:43.471Z,8.44
2019-05-17T04:55:13.858Z,8.43
2019-05-17T04:57:43.895Z,8.41
2019-05-17T05:00:13.355Z,8.41
2019-05-17T05:02:43.607Z,8.50
2019-05-17T05:05:14.555Z,8.50
2019-05-17T05:07:43.830Z,8.52
2019-05-17T05:10:13.778Z,8.45
2019-05-17T05:12:43.618Z,8.49
2019-05-17T05:15:12.738Z,8.54
2019-05-17T05:17:42.637Z,8.55
2019-05-17T05:20:13.182Z,8.49
2019-05-17T05:22:42.668Z,8.50
2019-05-17T05:25:12.534Z,8.53
2019-05-17T05:27:42.707Z,8.51
2019-05-17T05:30:12.140Z,8.56
2019-05-17T05:32:42.601Z,8.51
2019-05-17T05:35:12.540Z,8.51
2019-05-17T05:37:42.428Z,8.56
2019-05-17T05:40:12.712Z,8.56
2019-05-17T05:42:42.539Z,8.59
2019-05-17T05:45:12.319Z,8.51
2019-05-17T05:47:42.960Z,8.51
2019-05-17T05:50:13.532Z,8.53
2019-05-17T05:52:42.644Z,8.51
2019-05-17T05:55:12.670Z,8.54
2019-05-17T05:57:42.267Z,8.63
2019-05-17T06:00:14.016Z,8.60
2019-05-17T06:02:42.483Z,8.69
2019-05-17T06:05:16.516Z,8.58
2019-05-17T06:07:45.612Z,8.63
2019-05-17T06:10:14.670Z,8.63
2019-05-17T06:12:43.715Z,8.77
2019-05-17T06:15:12.970Z,8.70
2019-05-17T06:17:43.078Z,8.68
2019-05-17T06:20:12.296Z,8.66
2019-05-17T06:22:42.755Z,8.84
2019-05-17T06:25:15.034Z,8.85
2019-05-17T06:27:42.046Z,8.92
2019-05-17T06:30:12.998Z,8.87
2019-05-17T06:32:43.203Z,8.99
2019-05-17T06:35:12.915Z,8.96
2019-05-17T06:37:42.584Z,9.04
2019-05-17T06:40:13.324Z,8.91
2019-05-17T06:42:45.208Z,8.94
2019-05-17T06:45:12.867Z,8.94
2019-05-17T06:47:42.709Z,9.00
2019-05-17T06:50:14.375Z,9.00
2019-05-17T06:52:44.063Z,9.12
2019-05-17T06:55:12.947Z,9.19
2019-05-17T06:57:43.235Z,9.03
2019-05-17T07:00:19.744Z,9.04
2019-05-17T07:02:44.103Z,8.93
2019-05-17T07:05:14.832Z,9.10
2019-05-17T07:07:43.274Z,9.20
2019-05-17T07:10:12.838Z,9.24
2019-05-17T07:12:54.914Z,9.28
2019-05-17T07:15:12.354Z,9.09
2019-05-17T07:17:40.795Z,9.32
2019-05-17T07:20:10.668Z,9.36
2019-05-17T07:22:40.698Z,9.40
2019-05-17T07:25:10.857Z,9.40
2019-05-17T07:27:45.435Z,9.41
2019-05-17T07:30:11.452Z,9.52
2019-05-17T07:32:40.802Z,9.49
2019-05-17T07:35:11.224Z,9.61
2019-05-17T07:37:39.901Z,9.45
2019-05-17T07:40:10.810Z,9.60
2019-05-17T07:42:39.706Z,9.53
2019-05-17T07:45:10.135Z,9.44
2019-05-17T07:47:40.542Z,9.40
2019-05-17T07:50:11.374Z,9.45
2019-05-17T07:52:40.161Z,9.46
2019-05-17T07:55:10.918Z,9.42
2019-05-17T07:57:41.034Z,9.43
2019-05-17T08:00:10.507Z,9.46
2019-05-17T08:02:40.219Z,9.51
2019-05-17T08:05:10.446Z,9.57
2019-05-17T08:07:40.236Z,9.72
2019-05-17T08:10:10.963Z,9.58
2019-05-17T08:12:40.513Z,9.61
2019-05-17T08:15:10.704Z,9.89
2019-05-17T08:17:39.735Z,9.57
2019-05-17T08:20:10.646Z,9.80
2019-05-17T08:22:39.906Z,9.71
2019-05-17T08:25:10.162Z,9.75
2019-05-17T08:27:40.646Z,9.56
2019-05-17T08:30:10.528Z,9.80
2019-05-17T08:32:40.070Z,9.79
2019-05-17T08:35:11.173Z,9.74
2019-05-17T08:37:42.401Z,9.75
2019-05-17T08:40:10.718Z,9.82
2019-05-17T08:42:40.705Z,9.83
2019-05-17T08:45:09.925Z,9.83
2019-05-17T08:47:39.625Z,9.84
2019-05-17T08:50:11.340Z,9.80
2019-05-17T08:52:40.344Z,9.78
2019-05-17T08:55:09.817Z,9.83
2019-05-17T08:57:39.940Z,9.79
2019-05-17T09:00:10.739Z,10.02
2019-05-17T09:02:40.771Z,9.89
2019-05-17T09:05:10.110Z,10.00
2019-05-17T09:07:40.177Z,10.13
2019-05-17T09:10:10.188Z,10.13
2019-05-17T09:12:41.072Z,10.37
2019-05-17T09:15:10.075Z,10.41
2019-05-17T09:17:39.653Z,10.20
2019-05-17T09:20:10.837Z,10.28
2019-05-17T09:22:39.929Z,10.16
2019-05-17T09:25:13.502Z,10.10
2019-05-17T09:27:39.803Z,10.22
2019-05-17T09:30:09.739Z,10.51
2019-05-17T09:32:40.355Z,10.28
2019-05-17T09:35:10.073Z,10.50
2019-05-17T09:37:41.531Z,10.40
2019-05-17T09:40:09.596Z,10.49
2019-05-17T09:42:40.826Z,10.61
2019-05-17T09:45:09.805Z,10.49
2019-05-17T09:47:39.717Z,10.41
2019-05-17T09:50:10.001Z,10.69
2019-05-17T09:52:40.689Z,10.71
2019-05-17T09:55:10.073Z,10.62
2019-05-17T09:57:40.935Z,10.78
2019-05-17T10:00:10.806Z,10.84
2019-05-17T10:02:40.364Z,10.85
2019-05-17T10:05:10.553Z,11.02
2019-05-17T10:07:40.384Z,10.87
2019-05-17T10:10:10.389Z,10.79
2019-05-17T10:12:40.436Z,10.86
2019-05-17T10:15:10.022Z,10.95
2019-05-17T10:17:38.821Z,10.98
2019-05-17T10:20:10.781Z,10.89
2019-05-17T10:22:40.112Z,10.98
2019-05-17T10:25:09.624Z,11.11
2019-05-17T10:27:40.401Z,11.04
2019-05-17T10:30:10.264Z,11.05
2019-05-17T10:32:40.945Z,11.27
2019-05-17T10:35:09.746Z,11.13
2019-05-17T10:37:40.805Z,11.48
2019-05-17T10:40:10.218Z,11.25
2019-05-17T10:42:39.629Z,11.45
2019-05-17T10:45:11.011Z,11.62
2019-05-17T10:47:39.956Z,11.63
2019-05-17T10:50:10.898Z,11.49
2019-05-17T10:52:41.054Z,11.78
2019-05-17T10:55:10.446Z,11.68
2019-05-17T10:57:39.325Z,11.81
2019-05-17T11:00:10.041Z,11.79
2019-05-17T11:02:38.829Z,11.70
2019-05-17T11:05:07.587Z,11.64
2019-05-17T11:07:36.005Z,11.84
2019-05-17T11:10:06.266Z,11.68
2019-05-17T11:12:34.739Z,12.03
2019-05-17T11:15:11.097Z,11.66
2019-05-17T11:17:34.469Z,11.80
2019-05-17T11:20:03.307Z,11.74
2019-05-17T11:22:31.708Z,11.78
2019-05-17T11:25:00.122Z,11.88
2019-05-17T11:27:28.583Z,11.82
2019-05-17T11:29:56.932Z,11.81
2019-05-17T11:32:25.360Z,11.88
2019-05-17T11:34:53.826Z,11.94
2019-05-17T11:37:23.055Z,11.97
2019-05-17T11:39:51.544Z,12.13
2019-05-17T11:42:19.953Z,12.36
2019-05-17T11:44:48.433Z,12.39
2019-05-17T11:47:16.857Z,12.19
2019-05-17T11:49:45.247Z,12.36
2019-05-17T11:52:14.479Z,12.43
2019-05-17T11:54:42.998Z,12.55
2019-05-17T11:57:12.374Z,12.50
2019-05-17T11:59:40.970Z,12.61
2019-05-17T12:02:09.377Z,12.53
2019-05-17T12:04:37.785Z,12.63
2019-05-17T12:07:06.233Z,12.68
2019-05-17T12:09:37.688Z,12.87
2019-05-17T12:12:04.839Z,12.95
2019-05-17T12:14:33.435Z,13.12
2019-05-17T12:17:01.842Z,13.06
2019-05-17T12:19:30.270Z,13.03
2019-05-17T12:21:58.680Z,12.80
2019-05-17T12:24:27.071Z,12.84
2019-05-17T12:26:55.540Z,12.79
2019-05-17T12:29:23.994Z,12.70
2019-05-17T12:31:52.390Z,12.81
2019-05-17T12:34:20.802Z,12.81
2019-05-17T12:36:49.225Z,12.82
2019-05-17T12:39:17.635Z,13.11
2019-05-17T12:41:46.094Z,13.26
2019-05-17T12:44:14.555Z,13.55
2019-05-17T12:46:44.547Z,13.54
2019-05-17T12:49:13.389Z,14.10
2019-05-17T12:51:42.567Z,13.97
2019-05-17T12:54:10.958Z,14.54
2019-05-17T12:56:39.368Z,14.34
2019-05-17T12:59:07.836Z,14.80
2019-05-17T13:01:36.248Z,14.63
2019-05-17T13:04:04.808Z,14.50
2019-05-17T13:06:33.244Z,14.92
2019-05-17T13:09:01.867Z,14.83
2019-05-17T13:11:30.342Z,15.35
2019-05-17T13:13:58.792Z,15.12
2019-05-17T13:16:27.321Z,14.60
2019-05-17T13:18:55.723Z,14.65
2019-05-17T13:21:24.121Z,14.63
2019-05-17T13:23:52.554Z,14.91
2019-05-17T13:26:20.982Z,14.78
2019-05-17T13:28:49.395Z,15.22
2019-05-17T13:31:17.813Z,14.91
2019-05-17T13:33:46.243Z,14.87
2019-05-17T13:36:15.037Z,14.52
2019-05-17T13:38:43.525Z,14.44
2019-05-17T13:41:12.031Z,14.61
2019-05-17T13:43:40.505Z,14.49
2019-05-17T13:46:09.369Z,14.31
2019-05-17T13:48:38.940Z,14.52
2019-05-17T13:51:08.111Z,14.84
2019-05-17T13:53:36.824Z,14.90
2019-05-17T13:56:06.731Z,14.77
2019-05-17T13:58:35.323Z,14.71
2019-05-17T14:01:03.740Z,14.75
2019-05-17T14:03:32.190Z,14.74
2019-05-17T14:06:00.683Z,14.61
2019-05-17T14:08:29.108Z,14.73
2019-05-17T14:10:57.619Z,15.24
2019-05-17T14:13:26.138Z,15.27
2019-05-17T14:15:55.565Z,15.18
2019-05-17T14:18:24.274Z,15.48
2019-05-17T14:20:52.825Z,15.85
2019-05-17T14:23:22.646Z,15.70
2019-05-17T14:25:51.141Z,15.86
2019-05-17T14:28:19.735Z,15.55
2019-05-17T14:30:48.615Z,15.64
2019-05-17T14:33:17.374Z,15.70
2019-05-17T14:35:45.893Z,15.50
2019-05-17T14:38:14.458Z,15.38
2019-05-17T14:41:05.739Z,15.38
2019-05-17T14:43:14.129Z,15.35
2019-05-17T14:45:43.931Z,15.35
2019-05-17T14:48:13.318Z,15.30
2019-05-17T14:50:42.958Z,15.51
2019-05-17T14:53:11.466Z,15.22
2019-05-17T14:55:39.880Z,15.21
2019-05-17T14:58:08.470Z,15.12
2019-05-17T15:00:38.144Z,15.12
2019-05-17T15:03:07.679Z,15.27
2019-05-17T15:05:36.553Z,15.25
2019-05-17T15:08:04.991Z,15.17
2019-05-17T15:10:33.439Z,15.69
2019-05-17T15:13:04.519Z,15.69
2019-05-17T15:15:33.097Z,15.86
2019-05-17T15:18:01.530Z,16.01
2019-05-17T15:20:30.108Z,16.23
2019-05-17T15:22:58.785Z,16.18
2019-05-17T15:25:27.203Z,16.13
2019-05-17T15:27:55.637Z,15.92
2019-05-17T15:30:24.253Z,16.42
2019-05-17T15:32:52.873Z,15.70
2019-05-17T15:35:21.448Z,15.88
2019-05-17T15:37:50.551Z,15.55
2019-05-17T15:40:19.108Z,15.49
2019-05-17T15:42:47.709Z,15.21
2019-05-17T15:45:16.629Z,15.44
2019-05-17T15:47:46.356Z,15.46
2019-05-17T15:50:15.293Z,15.37
2019-05-17T15:52:44.005Z,15.46
2019-05-17T15:55:12.744Z,15.25
2019-05-17T15:57:41.913Z,15.08
2019-05-17T16:00:11.327Z,15.10
2019-05-17T16:02:40.118Z,15.14
2019-05-17T16:05:09.139Z,15.03
2019-05-17T16:07:37.921Z,15.10
2019-05-17T16:10:10.423Z,15.10
2019-05-17T16:12:38.999Z,15.32
2019-05-17T16:15:09.191Z,15.42
2019-05-17T16:17:38.430Z,15.71
2019-05-17T16:20:07.715Z,15.83
2019-05-17T16:22:36.541Z,16.02
2019-05-17T16:25:06.569Z,15.93
2019-05-17T16:27:35.620Z,15.98
2019-05-17T16:30:05.759Z,16.01
2019-05-17T16:32:34.275Z,15.53
2019-05-17T16:35:02.894Z,15.72
2019-05-17T16:37:31.711Z,15.76
2019-05-17T16:40:01.041Z,15.92
2019-05-17T16:42:30.044Z,15.96
2019-05-17T16:44:58.805Z,15.88
2019-05-17T16:47:27.297Z,15.93
2019-05-17T16:49:56.487Z,15.97
2019-05-17T16:52:25.265Z,15.79
2019-05-17T16:54:53.832Z,15.57
2019-05-17T16:57:22.838Z,15.33
2019-05-17T16:59:51.761Z,15.13
2019-05-17T17:02:20.361Z,15.17
2019-05-17T17:04:48.972Z,15.09
2019-05-17T17:07:17.944Z,15.04
2019-05-17T17:09:46.735Z,14.98
2019-05-17T17:12:15.286Z,15.06
2019-05-17T17:14:43.707Z,15.07
2019-05-17T17:17:13.258Z,14.98
2019-05-17T17:19:42.039Z,15.04
2019-05-17T17:22:10.553Z,15.15
2019-05-17T17:24:38.955Z,15.08
2019-05-17T17:27:07.366Z,15.09
2019-05-17T17:29:35.803Z,15.07
2019-05-17T17:32:04.199Z,14.99
2019-05-17T17:34:32.629Z,15.01
2019-05-17T17:37:01.025Z,15.09
2019-05-17T17:39:29.434Z,15.02
2019-05-17T17:41:57.851Z,14.98
2019-05-17T17:44:26.297Z,14.97
2019-05-17T17:46:54.712Z,14.91
2019-05-17T17:49:23.124Z,14.87
2019-05-17T17:51:51.549Z,14.86
2019-05-17T17:54:20.006Z,14.88
2019-05-17T17:56:48.502Z,14.92
2019-05-17T17:59:17.049Z,14.91
2019-05-17T18:01:45.485Z,14.88
2019-05-17T18:04:13.959Z,14.83
2019-05-17T18:06:42.380Z,14.88
2019-05-17T18:09:10.787Z,14.76
2019-05-17T18:11:39.215Z,14.73
2019-05-17T18:14:13.225Z,14.73
2019-05-17T18:16:37.757Z,14.69
2019-05-17T18:19:06.285Z,14.58
2019-05-17T18:21:34.772Z,14.66
2019-05-17T18:24:03.203Z,14.60
2019-05-17T18:26:31.632Z,14.59
2019-05-17T18:29:00.041Z,14.59
2019-05-17T18:31:28.452Z,14.55
2019-05-17T18:33:56.894Z,14.59
2019-05-17T18:36:25.315Z,14.48
2019-05-17T18:38:55.146Z,14.44
2019-05-17T18:41:23.562Z,14.47
2019-05-17T18:43:51.972Z,14.41
2019-05-17T18:46:20.831Z,14.37
2019-05-17T18:48:49.315Z,14.24
2019-05-17T18:51:17.708Z,14.25
2019-05-17T18:53:46.340Z,14.21
2019-05-17T18:56:14.766Z,14.18
2019-05-17T18:58:43.175Z,14.12
2019-05-17T19:01:11.860Z,14.09
2019-05-17T19:03:40.324Z,13.99
2019-05-17T19:06:08.740Z,13.87
2019-05-17T19:08:37.149Z,13.87
2019-05-17T19:11:06.009Z,13.83
2019-05-17T19:13:34.502Z,13.78
2019-05-17T19:16:02.985Z,13.85
2019-05-17T19:18:31.488Z,13.79
2019-05-17T19:20:59.906Z,13.76
2019-05-17T19:23:28.325Z,13.65
2019-05-17T19:25:56.738Z,13.63
2019-05-17T19:28:25.133Z,13.51
2019-05-17T19:30:53.564Z,13.51
2019-05-17T19:33:22.717Z,13.53
2019-05-17T19:35:52.581Z,13.38
2019-05-17T19:38:21.140Z,13.25
2019-05-17T19:40:51.004Z,13.37
2019-05-17T19:43:20.030Z,13.28
2019-05-17T19:45:48.461Z,13.24
2019-05-17T19:48:19.802Z,13.35
2019-05-17T19:50:48.067Z,13.20
2019-05-17T19:53:16.490Z,13.13
2019-05-17T19:55:44.920Z,13.27
2019-05-17T19:58:13.463Z,13.26
2019-05-17T20:00:41.912Z,13.17
2019-05-17T20:03:10.355Z,13.18
2019-05-17T20:05:38.760Z,13.09
2019-05-17T20:08:07.216Z,13.01
2019-05-17T20:10:35.634Z,13.07
2019-05-17T20:13:04.106Z,13.00
2019-05-17T20:15:34.881Z,12.95
2019-05-17T20:18:02.810Z,12.87
2019-05-17T20:20:31.192Z,12.84
2019-05-17T20:22:59.625Z,13.03
2019-05-17T20:25:28.038Z,13.00
2019-05-17T20:27:56.488Z,12.97
2019-05-17T20:30:24.880Z,12.80
2019-05-17T20:32:53.312Z,12.85
2019-05-17T20:35:21.733Z,12.76
2019-05-17T20:37:50.137Z,12.67
2019-05-17T20:40:18.907Z,12.75
2019-05-17T20:42:48.286Z,12.76
2019-05-17T20:45:30.609Z,12.78
2019-05-17T20:47:47.328Z,12.67
2019-05-17T20:50:15.984Z,12.67
2019-05-17T20:52:44.409Z,12.67
2019-05-17T20:55:13.176Z,12.72
2019-05-17T20:57:41.607Z,12.76
2019-05-17T21:00:11.034Z,12.74
2019-05-17T21:02:39.431Z,12.73
2019-05-17T21:05:08.600Z,12.82
2019-05-17T21:07:37.009Z,12.68
2019-05-17T21:10:06.667Z,12.69
2019-05-17T21:12:35.113Z,12.59
2019-05-17T21:15:04.771Z,12.60
2019-05-17T21:17:33.183Z,12.52
2019-05-17T21:20:01.597Z,12.52
2019-05-17T21:22:30.046Z,12.46
2019-05-17T21:24:58.479Z,12.49
2019-05-17T21:27:26.925Z,12.51
2019-05-17T21:29:55.378Z,12.53
2019-05-17T21:32:23.809Z,12.50
2019-05-17T21:34:52.225Z,12.37
2019-05-17T21:37:20.652Z,12.40
2019-05-17T21:39:49.052Z,12.32
2019-05-17T21:42:17.494Z,12.34
2019-05-17T21:44:45.896Z,12.30
2019-05-17T21:47:14.322Z,12.33
2019-05-17T21:49:42.829Z,12.38
2019-05-17T21:52:11.232Z,12.37
2019-05-17T21:54:39.694Z,12.45
2019-05-17T21:57:08.143Z,12.36
2019-05-17T21:59:36.564Z,12.36
2019-05-17T22:02:05.329Z,12.40
2019-05-17T22:04:33.831Z,12.44
2019-05-17T22:07:02.270Z,12.45
2019-05-17T22:09:30.733Z,12.46
2019-05-17T22:12:00.858Z,12.44
2019-05-17T22:14:29.300Z,12.31
2019-05-17T22:16:57.679Z,12.36
2019-05-17T22:19:26.099Z,12.30
2019-05-17T22:21:54.497Z,12.33
2019-05-17T22:24:22.911Z,12.16
2019-05-17T22:26:51.346Z,12.13
2019-05-17T22:29:19.796Z,12.17
2019-05-17T22:31:49.161Z,12.03
2019-05-17T22:34:17.559Z,12.07
2019-05-17T22:36:45.990Z,11.89
2019-05-17T22:39:14.393Z,11.90
2019-05-17T22:41:42.813Z,12.06
2019-05-17T22:44:11.240Z,12.02
2019-05-17T22:46:39.659Z,11.94
2019-05-17T22:49:08.111Z,11.89
2019-05-17T22:51:36.547Z,11.97
2019-05-17T22:54:05.074Z,11.88
2019-05-17T22:56:33.503Z,11.95
2019-05-17T22:59:01.904Z,11.87
2019-05-17T23:01:30.324Z,11.82
2019-05-17T23:03:58.752Z,11.67
2019-05-17T23:06:27.179Z,11.65
2019-05-17T23:08:55.682Z,11.67
2019-05-17T23:11:24.554Z,11.79
2019-05-17T23:13:52.979Z,11.71
2019-05-17T23:16:21.379Z,11.73
2019-05-17T23:19:08.952Z,11.65
2019-05-17T23:21:37.602Z,11.65
2019-05-17T23:24:06.528Z,11.72
2019-05-17T23:26:35.099Z,11.53
2019-05-17T23:29:03.871Z,11.45
2019-05-17T23:31:32.289Z,11.48
2019-05-17T23:34:00.707Z,11.52
2019-05-17T23:36:29.131Z,11.61
2019-05-17T23:38:57.558Z,11.63
2019-05-17T23:41:26.006Z,11.63
2019-05-17T23:43:54.429Z,11.76
2019-05-17T23:46:22.854Z,11.83
2019-05-17T23:48:51.271Z,11.65
2019-05-17T23:51:19.837Z,11.65
2019-05-17T23:53:48.264Z,11.56
2019-05-17T23:56:16.680Z,11.51
2019-05-17T23:58:45.204Z,11.42
